createdAt,value
2023-04-28T00:01:23.619Z,2.53
2023-04-28T00:06:27.207Z,3.20
2023-04-28T00:11:32.239Z,2.58
2023-04-28T00:16:36.177Z,2.50
2023-04-28T00:21:39.880Z,2.25
2023-04-28T00:26:44.706Z,2.53
2023-04-28T00:31:48.312Z,2.53
2023-04-28T00:36:51.966Z,2.45
2023-04-28T00:41:57.870Z,2.53
2023-04-28T00:47:01.428Z,2.55
2023-04-28T00:52:07.213Z,2.60
2023-04-28T00:57:12.822Z,2.45
2023-04-28T01:02:18.544Z,2.30
2023-04-28T01:07:22.461Z,2.40
2023-04-28T01:12:27.722Z,2.53
2023-04-28T01:17:33.310Z,2.60
2023-04-28T01:22:39.294Z,2.50
2023-04-28T01:27:44.240Z,2.65
2023-04-28T01:32:48.054Z,2.88
2023-04-28T01:37:51.592Z,2.95
2023-04-28T01:42:56.639Z,2.72
2023-04-28T01:48:00.255Z,2.55
2023-04-28T01:53:03.890Z,2.15
2023-04-28T01:58:08.882Z,2.65
2023-04-28T02:03:12.795Z,3.00
2023-04-28T02:08:16.496Z,3.10
2023-04-28T02:13:21.476Z,3.10
2023-04-28T02:18:24.950Z,2.95
2023-04-28T02:23:28.413Z,2.78
2023-04-28T02:28:33.415Z,3.00
2023-04-28T02:33:36.950Z,2.72
2023-04-28T02:38:41.634Z,2.50
2023-04-28T02:43:46.682Z,2.97
2023-04-28T02:48:50.368Z,2.75
2023-04-28T02:53:53.980Z,2.63
2023-04-28T02:58:58.985Z,2.15
2023-04-28T03:04:02.676Z,2.42
2023-04-28T03:09:06.833Z,2.90
2023-04-28T03:14:12.692Z,2.33
2023-04-28T03:19:16.358Z,2.30
2023-04-28T03:24:20.239Z,2.40
2023-04-28T03:29:27.534Z,2.72
2023-04-28T03:34:31.097Z,2.72
2023-04-28T03:39:34.903Z,2.47
2023-04-28T03:44:40.341Z,2.70
2023-04-28T03:49:44.500Z,2.78
2023-04-28T03:54:48.194Z,2.60
2023-04-28T03:59:53.229Z,2.78
2023-04-28T04:04:57.344Z,2.25
2023-04-28T04:10:03.841Z,2.80
2023-04-28T04:15:13.342Z,3.10
2023-04-28T04:20:19.452Z,2.60
2023-04-28T04:25:23.544Z,2.53
2023-04-28T04:30:29.997Z,2.53
2023-04-28T04:35:35.332Z,2.90
2023-04-28T04:40:39.176Z,2.53
2023-04-28T04:45:44.666Z,2.65
2023-04-28T04:50:49.406Z,2.30
2023-04-28T04:55:53.292Z,2.67
2023-04-28T05:00:58.781Z,2.25
2023-04-28T05:06:03.134Z,2.90
2023-04-28T05:11:26.074Z,2.55
2023-04-28T05:16:31.190Z,2.55
2023-04-28T05:21:43.073Z,2.47
2023-04-28T05:26:46.743Z,2.88
2023-04-28T05:31:51.833Z,2.80
2023-04-28T05:36:57.252Z,3.05
2023-04-28T05:42:04.617Z,2.53
2023-04-28T05:47:09.556Z,2.53
2023-04-28T05:52:13.605Z,2.75
2023-04-28T05:57:17.867Z,2.50
2023-04-28T06:02:24.114Z,2.78
2023-04-28T06:07:28.449Z,2.50
2023-04-28T06:12:32.207Z,2.75
2023-04-28T06:17:37.573Z,2.53
2023-04-28T06:22:41.486Z,2.75
2023-04-28T06:27:45.192Z,2.65
2023-04-28T06:32:50.198Z,2.42
2023-04-28T06:37:54.680Z,2.50
2023-04-28T06:42:58.372Z,2.28
2023-04-28T06:48:12.693Z,2.38
2023-04-28T06:53:16.717Z,2.28
2023-04-28T06:58:20.930Z,2.05
2023-04-28T07:03:26.464Z,2.42
2023-04-28T07:08:30.824Z,2.15
2023-04-28T07:13:34.615Z,2.10
2023-04-28T07:18:39.617Z,2.20
2023-04-28T07:23:43.610Z,1.88
2023-04-28T07:28:47.470Z,1.77
2023-04-28T07:33:52.411Z,2.00
2023-04-28T07:38:56.222Z,1.80
2023-04-28T07:43:59.844Z,1.70
2023-04-28T07:49:04.882Z,1.83
2023-04-28T07:54:08.404Z,2.05
2023-04-28T07:59:12.670Z,1.52
2023-04-28T08:04:17.860Z,2.00
2023-04-28T08:09:21.938Z,2.00
2023-04-28T08:14:25.542Z,1.30
2023-04-28T08:19:30.454Z,1.90
2023-04-28T08:24:35.260Z,1.77
2023-04-28T08:29:40.280Z,1.48
2023-04-28T08:34:45.118Z,1.98
2023-04-28T08:39:48.796Z,1.40
2023-04-28T08:44:54.876Z,1.63
2023-04-28T08:50:04.378Z,1.83
2023-04-28T08:55:08.695Z,1.50
2023-04-28T09:00:13.194Z,1.67
2023-04-28T09:05:18.353Z,1.85
2023-04-28T09:10:22.819Z,1.85
2023-04-28T09:15:34.103Z,1.58
2023-04-28T09:20:39.237Z,1.50
2023-04-28T09:25:42.791Z,1.30
2023-04-28T09:30:46.253Z,1.40
2023-04-28T09:35:51.473Z,1.60
2023-04-28T09:40:56.786Z,1.42
2023-04-28T09:46:01.097Z,1.60
2023-04-28T09:51:07.904Z,1.40
2023-04-28T09:56:11.925Z,1.73
2023-04-28T10:01:15.789Z,1.48
2023-04-28T10:06:20.962Z,1.25
2023-04-28T10:11:25.288Z,1.40
2023-04-28T10:16:32.251Z,1.67
2023-04-28T10:21:39.413Z,1.65
2023-04-28T10:27:10.191Z,1.45
2023-04-28T10:32:17.259Z,1.40
2023-04-28T10:37:22.612Z,1.48
2023-04-28T10:42:45.054Z,1.38
2023-04-28T10:48:07.319Z,1.50
2023-04-28T10:53:12.735Z,1.23
2023-04-28T10:58:36.398Z,1.13
2023-04-28T11:03:51.808Z,1.52
2023-04-28T11:08:58.112Z,1.20
2023-04-28T11:14:16.516Z,1.50
2023-04-28T11:19:21.525Z,1.42
2023-04-28T11:24:27.453Z,1.40
2023-04-28T11:29:35.224Z,1.50
2023-04-28T11:34:39.160Z,1.20
2023-04-28T11:39:44.047Z,1.52
2023-04-28T11:44:52.739Z,1.58
2023-04-28T11:49:56.260Z,1.20
2023-04-28T11:55:02.656Z,1.35
2023-04-28T12:00:19.568Z,1.10
2023-04-28T12:05:23.861Z,1.33
2023-04-28T12:10:28.903Z,1.50
2023-04-28T12:15:42.124Z,1.45
2023-04-28T12:20:45.849Z,1.30
2023-04-28T12:25:50.900Z,1.50
2023-04-28T12:31:05.250Z,1.33
2023-04-28T12:36:09.080Z,1.30
2023-04-28T12:41:14.045Z,1.33
2023-04-28T12:46:17.942Z,1.15
2023-04-28T12:51:21.982Z,1.83
2023-04-28T12:56:26.829Z,1.50
2023-04-28T13:01:30.833Z,1.67
2023-04-28T13:06:35.316Z,1.20
2023-04-28T13:11:40.313Z,1.10
2023-04-28T13:16:44.055Z,1.38
2023-04-28T13:21:48.129Z,1.42
2023-04-28T13:26:53.340Z,1.30
2023-04-28T13:31:56.891Z,1.17
2023-04-28T13:37:00.589Z,1.30
2023-04-28T13:42:06.101Z,1.38
2023-04-28T13:47:11.141Z,1.80
2023-04-28T13:52:14.791Z,1.50
2023-04-28T13:57:19.796Z,1.35
2023-04-28T14:02:23.606Z,1.60
2023-04-28T14:07:27.362Z,1.20
2023-04-28T14:12:32.201Z,1.40
2023-04-28T14:17:35.817Z,1.42
2023-04-28T14:22:39.540Z,1.95
2023-04-28T14:27:44.508Z,1.63
2023-04-28T14:32:48.081Z,1.75
2023-04-28T14:37:51.700Z,1.50
2023-04-28T14:42:56.991Z,1.73
2023-04-28T14:48:00.579Z,2.05
2023-04-28T14:53:07.089Z,1.70
2023-04-28T14:58:12.336Z,1.65
2023-04-28T15:03:16.032Z,1.77
2023-04-28T15:08:19.711Z,2.15
2023-04-28T15:13:25.242Z,2.00
2023-04-28T15:18:29.029Z,1.90
2023-04-28T15:23:34.263Z,1.92
2023-04-28T15:28:40.458Z,1.80
2023-04-28T15:33:44.221Z,1.80
2023-04-28T15:38:49.116Z,1.80
2023-04-28T15:43:55.923Z,2.20
2023-04-28T15:49:00.043Z,1.80
2023-04-28T15:54:03.685Z,2.17
2023-04-28T15:59:10.363Z,2.58
2023-04-28T16:04:14.664Z,1.95
2023-04-28T16:09:18.521Z,2.15
2023-04-28T16:14:23.484Z,2.03
2023-04-28T16:19:27.031Z,2.67
2023-04-28T16:24:30.738Z,1.98
2023-04-28T16:29:36.022Z,2.55
2023-04-28T16:34:39.570Z,2.45
2023-04-28T16:39:43.116Z,2.40
2023-04-28T16:44:50.003Z,2.63
2023-04-28T16:49:54.657Z,2.78
2023-04-28T16:54:58.961Z,2.70
2023-04-28T17:00:04.765Z,2.70
2023-04-28T17:05:08.564Z,3.10
2023-04-28T17:10:12.427Z,2.72
2023-04-28T17:15:18.231Z,3.10
2023-04-28T17:20:22.409Z,3.05
2023-04-28T17:25:26.086Z,3.42
2023-04-28T17:30:31.147Z,2.92
2023-04-28T17:35:34.686Z,2.92
2023-04-28T17:40:38.575Z,2.97
2023-04-28T17:45:43.847Z,2.65
2023-04-28T17:50:47.436Z,3.15
2023-04-28T17:55:51.024Z,3.17
2023-04-28T18:01:02.678Z,3.55
2023-04-28T18:06:07.977Z,3.70
2023-04-28T18:11:11.877Z,3.70
2023-04-28T18:16:17.616Z,4.30
2023-04-28T18:21:21.366Z,6.97
2023-04-28T18:26:25.370Z,4.18
2023-04-28T18:31:30.992Z,3.92
2023-04-28T18:36:36.536Z,3.97
2023-04-28T18:41:40.866Z,3.92
2023-04-28T18:46:46.436Z,4.22
2023-04-28T18:51:50.277Z,3.80
2023-04-28T18:56:54.395Z,4.10
2023-04-28T19:02:01.614Z,4.30
2023-04-28T19:07:05.951Z,4.00
2023-04-28T19:12:10.408Z,4.30
2023-04-28T19:17:17.548Z,4.50
2023-04-28T19:22:31.406Z,4.38
2023-04-28T19:27:36.260Z,4.07
2023-04-28T19:32:44.704Z,4.75
2023-04-28T19:37:51.204Z,4.32
2023-04-28T19:42:55.850Z,4.00
2023-04-28T19:48:02.033Z,3.97
2023-04-28T19:53:11.551Z,3.80
2023-04-28T19:58:17.196Z,3.63
2023-04-28T20:03:23.775Z,4.13
2023-04-28T20:08:28.615Z,4.20
2023-04-28T20:13:35.224Z,3.97
2023-04-28T20:18:40.816Z,3.72
2023-04-28T20:23:44.741Z,3.92
2023-04-28T20:28:49.746Z,4.13
2023-04-28T20:33:54.671Z,3.83
2023-04-28T20:38:58.189Z,4.53
2023-04-28T20:44:02.359Z,4.22
2023-04-28T20:49:08.204Z,4.68
2023-04-28T20:54:11.751Z,3.90
2023-04-28T20:59:15.442Z,3.90
2023-04-28T21:04:20.464Z,3.55
2023-04-28T21:09:25.279Z,4.28
2023-04-28T21:14:28.970Z,4.20
2023-04-28T21:19:33.938Z,4.43
2023-04-28T21:24:37.509Z,3.63
2023-04-28T21:29:41.061Z,4.05
2023-04-28T21:34:49.054Z,3.35
2023-04-28T21:39:52.961Z,3.75
2023-04-28T21:44:56.792Z,3.47
2023-04-28T21:50:01.680Z,3.63
2023-04-28T21:55:05.287Z,3.80
2023-04-28T22:00:10.770Z,4.10
2023-04-28T22:05:18.159Z,4.13
2023-04-28T22:10:22.824Z,4.32
2023-04-28T22:15:26.414Z,4.65
2023-04-28T22:20:32.124Z,4.55
2023-04-28T22:25:35.727Z,4.45
2023-04-28T22:30:39.233Z,4.45
2023-04-28T22:35:44.107Z,3.92
2023-04-28T22:40:47.687Z,3.45
2023-04-28T22:45:51.302Z,4.03
2023-04-28T22:50:56.227Z,3.40
2023-04-28T22:56:02.984Z,3.60
2023-04-28T23:01:06.662Z,3.08
2023-04-28T23:06:11.517Z,3.40
2023-04-28T23:11:15.020Z,3.90
2023-04-28T23:16:18.652Z,3.53
2023-04-28T23:21:23.638Z,3.65
2023-04-28T23:26:27.184Z,3.60
2023-04-28T23:31:30.890Z,3.70
2023-04-28T23:36:35.851Z,3.38
2023-04-28T23:41:39.373Z,3.92
2023-04-28T23:46:43.055Z,4.13
2023-04-28T23:51:47.935Z,4.43
2023-04-28T23:56:51.420Z,3.72
